createdAt,value
2023-02-17T00:00:01.036Z,9.47
2023-02-17T00:01:01.016Z,9.56
2023-02-17T00:02:01.019Z,9.55
2023-02-17T00:03:00.989Z,9.54
2023-02-17T00:04:00.987Z,9.32
2023-02-17T00:05:00.965Z,9.41
2023-02-17T00:06:00.951Z,9.43
2023-02-17T00:07:00.939Z,9.50
2023-02-17T00:08:00.949Z,9.54
2023-02-17T00:09:00.922Z,9.50
2023-02-17T00:10:00.909Z,9.48
2023-02-17T00:11:00.900Z,9.51
2023-02-17T00:12:00.898Z,9.54
2023-02-17T00:13:00.872Z,9.65
2023-02-17T00:14:00.876Z,9.59
2023-02-17T00:15:00.852Z,9.65
2023-02-17T00:16:00.885Z,9.72
2023-02-17T00:17:00.860Z,9.64
2023-02-17T00:18:00.818Z,9.58
2023-02-17T00:19:00.865Z,9.61
2023-02-17T00:20:00.818Z,9.73
2023-02-17T00:21:00.778Z,9.83
2023-02-17T00:22:00.779Z,9.89
2023-02-17T00:23:00.767Z,9.79
2023-02-17T00:24:00.752Z,9.72
2023-02-17T00:25:00.757Z,9.82
2023-02-17T00:26:00.730Z,9.82
2023-02-17T00:27:00.719Z,9.87
2023-02-17T00:28:00.708Z,9.94
2023-02-17T00:29:00.691Z,9.99
2023-02-17T00:30:00.724Z,10.05
2023-02-17T00:31:00.763Z,10.10
2023-02-17T00:32:00.736Z,10.07
2023-02-17T00:33:00.677Z,10.05
2023-02-17T00:34:00.648Z,10.09
2023-02-17T00:35:00.634Z,10.07
2023-02-17T00:36:00.620Z,10.13
2023-02-17T00:37:00.630Z,10.15
2023-02-17T00:38:00.612Z,10.01
2023-02-17T00:39:00.594Z,9.94
2023-02-17T00:40:00.588Z,9.99
2023-02-17T00:41:00.565Z,10.09
2023-02-17T00:42:00.551Z,10.07
2023-02-17T00:43:00.558Z,10.15
2023-02-17T00:44:00.531Z,10.05
2023-02-17T00:45:00.543Z,10.05
2023-02-17T00:46:00.519Z,10.12
2023-02-17T00:47:00.508Z,10.20
2023-02-17T00:48:00.517Z,10.28
2023-02-17T00:49:00.485Z,10.23
2023-02-17T00:50:00.472Z,10.15
2023-02-17T00:51:00.467Z,10.19
2023-02-17T00:52:00.445Z,10.22
2023-02-17T00:53:00.433Z,10.33
2023-02-17T00:54:00.444Z,10.37
2023-02-17T00:55:00.416Z,10.40
2023-02-17T00:56:00.416Z,10.34
2023-02-17T00:57:00.392Z,10.33
2023-02-17T00:58:00.378Z,10.30
2023-02-17T00:59:00.376Z,10.34
2023-02-17T01:00:00.387Z,10.48
2023-02-17T01:01:00.353Z,10.46
2023-02-17T01:02:00.389Z,10.51
2023-02-17T01:03:00.330Z,10.42
2023-02-17T01:04:00.327Z,10.41
2023-02-17T01:05:00.479Z,10.33
2023-02-17T01:06:00.294Z,10.42
2023-02-17T01:07:00.290Z,10.34
2023-02-17T01:08:00.272Z,10.33
2023-02-17T01:09:00.276Z,10.44
2023-02-17T01:10:00.256Z,10.53
2023-02-17T01:11:00.244Z,10.49
2023-02-17T01:12:00.224Z,10.56
2023-02-17T01:13:00.216Z,10.59
2023-02-17T01:14:00.213Z,10.56
2023-02-17T01:15:00.216Z,10.64
2023-02-17T01:16:00.241Z,10.68
2023-02-17T01:17:00.175Z,10.60
2023-02-17T01:18:00.163Z,10.46
2023-02-17T01:19:00.164Z,10.42
2023-02-17T01:20:00.162Z,10.51
2023-02-17T01:21:00.125Z,10.56
2023-02-17T01:22:00.145Z,10.59
2023-02-17T01:23:00.111Z,10.53
2023-02-17T01:24:00.117Z,10.60
2023-02-17T01:25:00.092Z,10.49
2023-02-17T01:26:00.088Z,10.42
2023-02-17T01:27:00.055Z,10.53
2023-02-17T01:28:00.070Z,10.54
2023-02-17T01:29:00.035Z,10.46
2023-02-17T01:30:00.069Z,10.54
2023-02-17T01:31:00.083Z,10.63
2023-02-17T01:32:00.039Z,10.59
2023-02-17T01:33:00.018Z,10.44
2023-02-17T01:33:59.983Z,10.44
2023-02-17T01:34:59.972Z,10.44
2023-02-17T01:35:59.963Z,10.44
2023-02-17T01:36:59.942Z,10.60
2023-02-17T01:37:59.943Z,10.53
2023-02-17T01:38:59.951Z,10.67
2023-02-17T01:39:59.912Z,10.64
2023-02-17T01:40:59.905Z,10.53
2023-02-17T01:41:59.893Z,10.61
2023-02-17T01:42:59.882Z,10.63
2023-02-17T01:43:59.869Z,10.57
2023-02-17T01:44:59.894Z,10.61
2023-02-17T01:45:59.850Z,10.64
2023-02-17T01:46:59.829Z,10.63
2023-02-17T01:47:59.829Z,10.51
2023-02-17T01:48:59.808Z,10.51
2023-02-17T01:49:59.798Z,10.51
2023-02-17T01:50:59.808Z,10.49
2023-02-17T01:51:59.779Z,10.23
2023-02-17T01:52:59.758Z,10.20
2023-02-17T01:53:59.759Z,10.37
2023-02-17T01:54:59.736Z,10.41
2023-02-17T01:55:59.742Z,10.42
2023-02-17T01:56:59.751Z,10.33
2023-02-17T01:57:59.719Z,10.33
2023-02-17T01:58:59.695Z,10.41
2023-02-17T01:59:59.701Z,10.40
2023-02-17T02:00:59.681Z,10.34
2023-02-17T02:01:59.765Z,10.37
2023-02-17T02:02:59.759Z,10.40
2023-02-17T02:03:59.651Z,10.42
2023-02-17T02:04:59.629Z,10.38
2023-02-17T02:05:59.615Z,10.42
2023-02-17T02:06:59.606Z,10.33
2023-02-17T02:07:59.596Z,10.34
2023-02-17T02:08:59.603Z,10.37
2023-02-17T02:09:59.578Z,10.34
2023-02-17T02:10:59.567Z,10.38
2023-02-17T02:11:59.556Z,10.40
2023-02-17T02:12:59.539Z,10.48
2023-02-17T02:13:59.558Z,10.48
2023-02-17T02:14:59.521Z,10.46
2023-02-17T02:15:59.516Z,10.57
2023-02-17T02:16:59.499Z,10.37
2023-02-17T02:17:59.490Z,10.46
2023-02-17T02:18:59.477Z,10.42
2023-02-17T02:19:59.480Z,10.48
2023-02-17T02:20:59.467Z,10.51
2023-02-17T02:21:59.450Z,10.42
2023-02-17T02:22:59.459Z,10.48
2023-02-17T02:23:59.420Z,10.49
2023-02-17T02:24:59.443Z,10.44
2023-02-17T02:25:59.411Z,10.40
2023-02-17T02:26:59.399Z,10.46
2023-02-17T02:27:59.384Z,10.48
2023-02-17T02:28:59.361Z,10.38
2023-02-17T02:29:59.399Z,10.40
2023-02-17T02:30:59.411Z,10.41
2023-02-17T02:31:59.394Z,10.51
2023-02-17T02:32:59.326Z,10.54
2023-02-17T02:33:59.311Z,10.42
2023-02-17T02:34:59.300Z,10.44
2023-02-17T02:35:59.309Z,10.54
2023-02-17T02:36:59.302Z,10.67
2023-02-17T02:37:59.271Z,10.48
2023-02-17T02:38:59.252Z,10.42
2023-02-17T02:39:59.242Z,10.37
2023-02-17T02:40:59.246Z,10.41
2023-02-17T02:41:59.255Z,10.34
2023-02-17T02:42:59.212Z,10.30
2023-02-17T02:43:59.202Z,10.37
2023-02-17T02:44:59.190Z,10.34
2023-02-17T02:45:59.246Z,10.44
2023-02-17T02:46:59.177Z,10.46
2023-02-17T02:47:59.180Z,10.46
2023-02-17T02:48:59.148Z,10.38
2023-02-17T02:49:59.135Z,10.48
2023-02-17T02:50:59.121Z,10.60
2023-02-17T02:51:59.111Z,10.68
2023-02-17T02:52:59.114Z,10.56
2023-02-17T02:53:59.108Z,10.59
2023-02-17T02:54:59.079Z,10.61
2023-02-17T02:55:59.071Z,10.67
2023-02-17T02:56:59.060Z,10.57
2023-02-17T02:57:59.050Z,10.41
2023-02-17T02:58:59.041Z,10.49
2023-02-17T02:59:59.040Z,10.67
2023-02-17T03:00:59.047Z,10.76
2023-02-17T03:01:59.010Z,10.76
2023-02-17T03:02:58.993Z,10.72
2023-02-17T03:03:59.017Z,10.82
2023-02-17T03:04:58.972Z,10.76
2023-02-17T03:05:58.980Z,10.79
2023-02-17T03:06:58.952Z,10.74
2023-02-17T03:07:58.943Z,10.81
2023-02-17T03:08:58.920Z,10.79
2023-02-17T03:09:58.915Z,10.81
2023-02-17T03:10:58.924Z,10.89
2023-02-17T03:11:58.892Z,10.81
2023-02-17T03:12:58.881Z,10.81
2023-02-17T03:13:58.870Z,10.79
2023-02-17T03:14:58.864Z,10.75
2023-02-17T03:15:58.853Z,10.74
2023-02-17T03:16:58.852Z,10.89
2023-02-17T03:17:58.850Z,10.82
2023-02-17T03:18:58.811Z,10.94
2023-02-17T03:19:58.801Z,10.92
2023-02-17T03:20:58.790Z,10.97
2023-02-17T03:21:58.784Z,10.99
2023-02-17T03:22:58.789Z,11.02
2023-02-17T03:23:58.761Z,11.12
2023-02-17T03:24:58.750Z,11.05
2023-02-17T03:25:58.738Z,10.99
2023-02-17T03:26:58.721Z,10.87
2023-02-17T03:27:58.717Z,10.92
2023-02-17T03:28:58.728Z,10.84
2023-02-17T03:29:58.703Z,11.02
2023-02-17T03:30:58.752Z,11.11
2023-02-17T03:31:58.752Z,11.04
2023-02-17T03:32:58.666Z,10.94
2023-02-17T03:33:58.681Z,10.99
2023-02-17T03:34:58.646Z,10.99
2023-02-17T03:35:58.620Z,11.00
2023-02-17T03:36:58.618Z,11.02
2023-02-17T03:37:58.600Z,11.00
2023-02-17T03:38:58.592Z,11.11
2023-02-17T03:39:58.630Z,11.17
2023-02-17T03:40:58.571Z,11.10
2023-02-17T03:41:58.558Z,11.02
2023-02-17T03:42:58.560Z,11.11
2023-02-17T03:43:58.556Z,11.15
2023-02-17T03:44:58.529Z,11.32
2023-02-17T03:45:58.562Z,11.32
2023-02-17T03:46:58.510Z,11.32
2023-02-17T03:47:58.490Z,11.22
2023-02-17T03:48:58.483Z,11.15
2023-02-17T03:49:58.469Z,11.19
2023-02-17T03:50:58.463Z,11.26
2023-02-17T03:51:58.484Z,11.18
2023-02-17T03:52:58.438Z,11.10
2023-02-17T03:53:58.421Z,11.02
2023-02-17T03:54:58.413Z,11.11
2023-02-17T03:55:58.399Z,11.19
2023-02-17T03:56:58.395Z,11.19
2023-02-17T03:57:58.396Z,11.25
2023-02-17T03:58:58.379Z,11.33
2023-02-17T03:59:58.363Z,11.29
2023-02-17T04:00:58.358Z,11.41
2023-02-17T04:01:58.335Z,11.35
2023-02-17T04:02:58.326Z,11.44
2023-02-17T04:03:58.354Z,11.50
2023-02-17T04:04:58.298Z,11.45
2023-02-17T04:05:58.287Z,11.57
2023-02-17T04:06:58.279Z,11.55
2023-02-17T04:07:58.267Z,11.48
2023-02-17T04:08:58.260Z,11.41
2023-02-17T04:09:58.282Z,11.41
2023-02-17T04:10:58.257Z,11.33
2023-02-17T04:11:58.218Z,11.47
2023-02-17T04:12:58.204Z,11.51
2023-02-17T04:13:58.196Z,11.62
2023-02-17T04:14:58.183Z,11.51
2023-02-17T04:15:58.258Z,11.47
2023-02-17T04:16:58.165Z,11.36
2023-02-17T04:17:58.148Z,11.45
2023-02-17T04:18:58.145Z,11.45
2023-02-17T04:19:58.125Z,11.41
2023-02-17T04:20:58.126Z,11.50
2023-02-17T04:21:58.125Z,11.50
2023-02-17T04:22:58.095Z,11.52
2023-02-17T04:23:58.084Z,11.60
2023-02-17T04:24:58.074Z,11.62
2023-02-17T04:25:58.054Z,11.62
2023-02-17T04:26:58.095Z,11.54
2023-02-17T04:28:05.103Z,11.52
2023-02-17T04:28:58.041Z,11.48
2023-02-17T04:29:58.035Z,11.45
2023-02-17T04:30:58.102Z,11.50
2023-02-17T04:31:58.126Z,11.54
2023-02-17T04:32:58.006Z,11.54
2023-02-17T04:33:57.970Z,11.47
2023-02-17T04:34:57.958Z,11.55
2023-02-17T04:35:57.946Z,11.57
2023-02-17T04:36:57.940Z,11.57
2023-02-17T04:37:57.937Z,11.63
2023-02-17T04:38:57.951Z,11.69
2023-02-17T04:39:57.908Z,11.69
2023-02-17T04:40:57.888Z,11.62
2023-02-17T04:41:57.887Z,11.66
2023-02-17T04:42:57.865Z,11.60
2023-02-17T04:43:57.881Z,11.63
2023-02-17T04:44:57.846Z,11.72
2023-02-17T04:45:57.853Z,11.65
2023-02-17T04:46:57.835Z,11.52
2023-02-17T04:47:57.807Z,11.47
2023-02-17T04:48:57.796Z,11.59
2023-02-17T04:49:57.796Z,11.57
2023-02-17T04:50:57.789Z,11.57
2023-02-17T04:51:57.799Z,11.37
2023-02-17T04:52:57.781Z,11.48
2023-02-17T04:53:57.738Z,11.51
2023-02-17T04:54:57.756Z,11.51
2023-02-17T04:55:57.725Z,11.55
2023-02-17T04:56:57.716Z,11.62
2023-02-17T04:57:57.696Z,11.65
2023-02-17T04:58:57.696Z,11.62
2023-02-17T04:59:57.694Z,11.55
2023-02-17T05:00:57.685Z,11.48
2023-02-17T05:01:57.655Z,11.52
2023-02-17T05:02:57.646Z,11.62
2023-02-17T05:03:57.639Z,11.55
2023-02-17T05:04:57.651Z,11.41
2023-02-17T05:05:57.637Z,11.40
2023-02-17T05:06:57.600Z,11.37
2023-02-17T05:07:57.585Z,11.40
2023-02-17T05:08:57.576Z,11.35
2023-02-17T05:09:57.567Z,11.37
2023-02-17T05:10:57.559Z,11.33
2023-02-17T05:11:57.554Z,11.40
2023-02-17T05:12:57.535Z,11.45
2023-02-17T05:13:57.517Z,11.47
2023-02-17T05:14:57.507Z,11.41
2023-02-17T05:15:57.507Z,11.48
2023-02-17T05:16:57.506Z,11.51
2023-02-17T05:17:57.474Z,11.35
2023-02-17T05:18:57.478Z,11.32
2023-02-17T05:19:57.446Z,11.35
2023-02-17T05:20:57.437Z,11.47
2023-02-17T05:21:57.429Z,11.50
2023-02-17T05:22:57.436Z,11.41
2023-02-17T05:23:57.406Z,11.55
2023-02-17T05:24:57.397Z,11.33
2023-02-17T05:25:57.386Z,11.29
2023-02-17T05:26:57.379Z,11.26
2023-02-17T05:27:57.355Z,11.14
2023-02-17T05:28:57.368Z,11.25
2023-02-17T05:29:57.368Z,11.26
2023-02-17T05:30:57.355Z,11.45
2023-02-17T05:31:57.347Z,11.62
2023-02-17T05:32:57.305Z,11.47
2023-02-17T05:33:57.303Z,11.44
2023-02-17T05:34:57.297Z,11.44
2023-02-17T05:35:57.275Z,11.45
2023-02-17T05:36:57.261Z,11.50
2023-02-17T05:37:57.252Z,11.55
2023-02-17T05:38:57.245Z,11.59
2023-02-17T05:39:57.246Z,11.48
2023-02-17T05:40:57.219Z,11.62
2023-02-17T05:41:57.199Z,11.52
2023-02-17T05:42:57.199Z,11.43
2023-02-17T05:43:57.177Z,11.57
2023-02-17T05:44:57.169Z,11.44
2023-02-17T05:45:57.177Z,11.35
2023-02-17T05:46:57.155Z,11.45
2023-02-17T05:47:57.136Z,11.50
2023-02-17T05:48:57.133Z,11.45
2023-02-17T05:49:57.113Z,11.40
2023-02-17T05:50:57.116Z,11.47
2023-02-17T05:51:57.106Z,11.57
2023-02-17T05:52:57.087Z,11.69
2023-02-17T05:53:57.068Z,11.59
2023-02-17T05:54:57.058Z,11.55
2023-02-17T05:55:57.047Z,11.62
2023-02-17T05:56:57.060Z,11.62
2023-02-17T05:57:57.031Z,11.55
2023-02-17T05:58:57.022Z,11.52
2023-02-17T05:59:57.010Z,11.57
2023-02-17T06:00:57.000Z,11.68
2023-02-17T06:01:56.980Z,11.75
2023-02-17T06:02:57.083Z,11.70
2023-02-17T06:03:56.974Z,11.70
2023-02-17T06:04:57.116Z,11.70
2023-02-17T06:05:56.937Z,11.62
2023-02-17T06:06:56.969Z,11.69
2023-02-17T06:07:56.921Z,11.80
2023-02-17T06:08:56.928Z,11.75
2023-02-17T06:09:56.892Z,11.63
2023-02-17T06:10:56.881Z,11.60
2023-02-17T06:11:56.862Z,11.57
2023-02-17T06:12:56.862Z,11.59
2023-02-17T06:13:56.856Z,11.62
2023-02-17T06:14:56.873Z,11.65
2023-02-17T06:15:56.921Z,11.65
2023-02-17T06:16:56.811Z,11.69
2023-02-17T06:17:56.804Z,11.75
2023-02-17T06:18:56.791Z,11.81
2023-02-17T06:19:56.782Z,11.73
2023-02-17T06:20:56.784Z,11.80
2023-02-17T06:21:56.754Z,11.81
2023-02-17T06:22:56.749Z,11.69
2023-02-17T06:23:56.740Z,11.70
2023-02-17T06:24:56.721Z,11.75
2023-02-17T06:25:56.732Z,11.84
2023-02-17T06:26:56.702Z,11.83
2023-02-17T06:27:56.682Z,11.90
2023-02-17T06:28:56.681Z,11.88
2023-02-17T06:29:56.671Z,11.80
2023-02-17T06:30:56.714Z,11.86
2023-02-17T06:31:56.767Z,12.00
2023-02-17T06:32:56.630Z,11.99
2023-02-17T06:33:56.621Z,11.97
2023-02-17T06:34:56.609Z,11.95
2023-02-17T06:35:56.596Z,11.91
2023-02-17T06:36:56.588Z,12.06
2023-02-17T06:37:56.640Z,12.02
2023-02-17T06:38:56.558Z,11.97
2023-02-17T06:39:56.547Z,12.03
2023-02-17T06:40:56.540Z,12.15
2023-02-17T06:41:56.534Z,12.18
2023-02-17T06:42:56.536Z,12.18
2023-02-17T06:43:56.506Z,12.15
2023-02-17T06:44:56.486Z,12.03
2023-02-17T06:45:56.517Z,11.91
2023-02-17T06:46:56.478Z,12.00
2023-02-17T06:47:56.467Z,12.07
2023-02-17T06:48:56.466Z,12.06
2023-02-17T06:49:56.436Z,11.99
2023-02-17T06:50:56.440Z,11.95
2023-02-17T06:51:56.421Z,12.09
2023-02-17T06:52:56.408Z,12.24
2023-02-17T06:53:56.385Z,12.25
2023-02-17T06:54:56.396Z,12.22
2023-02-17T06:55:56.371Z,12.03
2023-02-17T06:56:56.354Z,11.86
2023-02-17T06:57:56.348Z,12.00
2023-02-17T06:58:56.340Z,12.00
2023-02-17T06:59:56.319Z,12.03
2023-02-17T07:00:56.329Z,12.03
2023-02-17T07:01:56.349Z,12.00
2023-02-17T07:02:56.352Z,12.10
2023-02-17T07:03:56.284Z,12.06
2023-02-17T07:04:56.268Z,12.09
2023-02-17T07:05:56.256Z,12.04
2023-02-17T07:06:56.268Z,12.03
2023-02-17T07:07:56.228Z,12.03
2023-02-17T07:08:56.229Z,12.18
2023-02-17T07:09:56.209Z,12.18
2023-02-17T07:10:56.221Z,12.21
2023-02-17T07:11:56.189Z,12.17
2023-02-17T07:12:56.200Z,12.20
2023-02-17T07:13:56.169Z,12.25
2023-02-17T07:14:56.174Z,12.27
2023-02-17T07:15:56.142Z,12.24
2023-02-17T07:16:56.159Z,12.29
2023-02-17T07:17:56.132Z,12.32
2023-02-17T07:18:56.150Z,12.35
2023-02-17T07:19:56.103Z,12.37
2023-02-17T07:20:56.091Z,12.18
2023-02-17T07:21:56.074Z,12.28
2023-02-17T07:22:56.071Z,12.37
2023-02-17T07:23:56.054Z,12.45
2023-02-17T07:24:56.071Z,12.47
2023-02-17T07:25:56.038Z,12.47
2023-02-17T07:26:56.032Z,12.36
2023-02-17T07:27:56.012Z,12.46
2023-02-17T07:28:56.001Z,12.57
2023-02-17T07:29:56.034Z,12.53
2023-02-17T07:30:56.069Z,12.53
2023-02-17T07:31:56.020Z,12.58
2023-02-17T07:32:55.958Z,12.60
2023-02-17T07:33:55.957Z,12.49
2023-02-17T07:34:55.933Z,12.36
2023-02-17T07:35:55.947Z,12.39
2023-02-17T07:36:55.911Z,12.39
2023-02-17T07:37:55.902Z,12.35
2023-02-17T07:38:55.884Z,12.53
2023-02-17T07:39:55.881Z,12.58
2023-02-17T07:40:55.859Z,12.65
2023-02-17T07:41:55.868Z,12.60
2023-02-17T07:42:55.849Z,12.64
2023-02-17T07:43:55.833Z,12.62
2023-02-17T07:44:55.820Z,12.65
2023-02-17T07:45:57.688Z,12.65
2023-02-17T07:46:55.818Z,12.70
2023-02-17T07:47:55.778Z,12.62
2023-02-17T07:48:55.776Z,12.57
2023-02-17T07:49:55.760Z,12.57
2023-02-17T07:50:55.747Z,12.50
2023-02-17T07:51:55.738Z,12.57
2023-02-17T07:52:55.763Z,12.61
2023-02-17T07:53:55.741Z,12.62
2023-02-17T07:54:55.719Z,12.57
2023-02-17T07:55:55.706Z,12.55
2023-02-17T07:56:55.684Z,12.67
2023-02-17T07:57:55.700Z,12.65
2023-02-17T07:58:55.657Z,12.83
2023-02-17T07:59:55.669Z,12.75
2023-02-17T08:00:55.669Z,12.76
2023-02-17T08:01:55.666Z,12.70
2023-02-17T08:02:55.604Z,12.76
2023-02-17T08:03:55.662Z,12.75
2023-02-17T08:04:55.602Z,12.76
2023-02-17T08:05:55.584Z,12.85
2023-02-17T08:06:55.566Z,12.79
2023-02-17T08:07:55.559Z,12.70
2023-02-17T08:08:55.555Z,12.64
2023-02-17T08:09:55.593Z,12.65
2023-02-17T08:10:55.526Z,12.67
2023-02-17T08:11:55.515Z,12.75
2023-02-17T08:12:55.504Z,12.79
2023-02-17T08:13:55.527Z,12.82
2023-02-17T08:14:55.489Z,12.79
2023-02-17T08:15:55.481Z,12.93
2023-02-17T08:16:55.514Z,12.97
2023-02-17T08:17:55.448Z,12.94
2023-02-17T08:18:55.427Z,12.94
2023-02-17T08:19:55.435Z,12.82
2023-02-17T08:20:55.433Z,12.64
2023-02-17T08:21:55.404Z,12.83
2023-02-17T08:22:55.421Z,12.76
2023-02-17T08:23:55.377Z,12.72
2023-02-17T08:24:55.369Z,12.83
2023-02-17T08:25:55.382Z,12.68
2023-02-17T08:26:55.373Z,12.73
2023-02-17T08:27:55.343Z,12.87
2023-02-17T08:28:55.335Z,12.94
2023-02-17T08:29:55.870Z,12.98
2023-02-17T08:30:55.442Z,13.08
2023-02-17T08:31:55.436Z,13.20
2023-02-17T08:32:55.275Z,13.22
2023-02-17T08:33:55.292Z,13.03
2023-02-17T08:34:55.259Z,12.79
2023-02-17T08:35:55.261Z,12.85
2023-02-17T08:36:55.228Z,12.87
2023-02-17T08:37:55.280Z,12.79
2023-02-17T08:38:55.208Z,12.90
2023-02-17T08:39:55.215Z,12.93
2023-02-17T08:40:55.188Z,13.03
2023-02-17T08:41:55.179Z,13.08
2023-02-17T08:42:55.218Z,13.13
2023-02-17T08:43:55.187Z,13.08
2023-02-17T08:44:55.171Z,13.09
2023-02-17T08:45:55.196Z,13.01
2023-02-17T08:46:55.157Z,13.03
2023-02-17T08:47:55.108Z,13.08
2023-02-17T08:48:55.158Z,13.03
2023-02-17T08:49:55.097Z,12.97
2023-02-17T08:50:55.072Z,13.08
2023-02-17T08:51:55.088Z,13.18
2023-02-17T08:52:55.049Z,13.13
2023-02-17T08:53:55.058Z,13.19
2023-02-17T08:54:55.105Z,13.37
2023-02-17T08:55:55.030Z,13.31
2023-02-17T08:56:55.008Z,13.27
2023-02-17T08:57:55.082Z,13.28
2023-02-17T08:58:54.987Z,13.25
2023-02-17T08:59:55.053Z,13.22
2023-02-17T09:00:55.026Z,13.04
2023-02-17T09:01:55.006Z,13.22
2023-02-17T09:02:54.964Z,13.23
2023-02-17T09:03:54.928Z,13.04
2023-02-17T09:04:54.976Z,13.16
2023-02-17T09:05:54.941Z,13.20
2023-02-17T09:06:54.906Z,13.25
2023-02-17T09:07:54.899Z,13.38
2023-02-17T09:08:54.915Z,13.42
2023-02-17T09:09:54.875Z,13.38
2023-02-17T09:10:54.850Z,13.37
2023-02-17T09:11:54.929Z,13.18
2023-02-17T09:12:54.960Z,13.16
2023-02-17T09:13:54.819Z,13.31
2023-02-17T09:14:54.809Z,13.30
2023-02-17T09:15:54.840Z,13.31
2023-02-17T09:16:54.811Z,13.39
2023-02-17T09:17:54.789Z,13.35
2023-02-17T09:18:54.773Z,13.44
2023-02-17T09:19:54.874Z,13.62
2023-02-17T09:20:54.755Z,13.67
2023-02-17T09:21:54.769Z,13.78
2023-02-17T09:22:54.768Z,13.70
2023-02-17T09:23:54.749Z,13.52
2023-02-17T09:24:54.691Z,13.57
2023-02-17T09:25:54.690Z,13.60
2023-02-17T09:26:54.673Z,13.67
2023-02-17T09:27:54.661Z,13.71
2023-02-17T09:28:54.720Z,13.63
2023-02-17T09:29:54.706Z,13.74
2023-02-17T09:30:54.675Z,13.83
2023-02-17T09:31:54.654Z,13.77
2023-02-17T09:32:54.678Z,13.79
2023-02-17T09:33:54.592Z,13.81
2023-02-17T09:34:54.603Z,13.87
2023-02-17T09:35:54.577Z,13.77
2023-02-17T09:36:54.561Z,13.68
2023-02-17T09:37:54.561Z,13.67
2023-02-17T09:38:54.599Z,13.54
2023-02-17T09:39:54.550Z,13.74
2023-02-17T09:40:54.557Z,13.71
2023-02-17T09:41:54.521Z,13.70
2023-02-17T09:42:54.621Z,13.70
2023-02-17T09:43:54.483Z,13.46
2023-02-17T09:44:54.511Z,13.39
2023-02-17T09:45:54.555Z,13.42
2023-02-17T09:47:01.634Z,13.46
2023-02-17T09:47:55.443Z,13.68
2023-02-17T09:48:54.425Z,13.65
2023-02-17T09:49:54.449Z,13.56
2023-02-17T09:50:54.405Z,13.71
2023-02-17T09:51:54.414Z,13.68
2023-02-17T09:52:54.389Z,13.90
2023-02-17T09:53:54.443Z,13.97
2023-02-17T09:54:54.356Z,13.96
2023-02-17T09:55:54.352Z,13.86
2023-02-17T09:56:54.415Z,13.74
2023-02-17T09:57:54.364Z,13.67
2023-02-17T09:58:54.342Z,13.67
2023-02-17T09:59:54.353Z,13.77
2023-02-17T10:00:54.349Z,13.95
2023-02-17T10:01:54.342Z,14.04
2023-02-17T10:02:54.262Z,13.89
2023-02-17T10:03:54.350Z,13.93
2023-02-17T10:04:54.277Z,14.05
2023-02-17T10:05:54.259Z,14.04
2023-02-17T10:06:54.226Z,13.97
2023-02-17T10:07:54.210Z,14.11
2023-02-17T10:08:54.308Z,14.08
2023-02-17T10:09:54.268Z,14.20
2023-02-17T10:10:54.176Z,14.10
2023-02-17T10:11:54.161Z,14.20
2023-02-17T10:12:54.239Z,14.26
2023-02-17T10:13:54.222Z,14.32
2023-02-17T10:14:54.267Z,14.36
2023-02-17T10:15:54.172Z,14.45
2023-02-17T10:16:54.098Z,14.47
2023-02-17T10:17:54.101Z,14.32
2023-02-17T10:18:54.096Z,14.47
2023-02-17T10:19:54.155Z,14.55
2023-02-17T10:20:54.161Z,14.59
2023-02-17T10:21:54.068Z,14.54
2023-02-17T10:22:54.058Z,14.68
2023-02-17T10:23:54.030Z,14.81
2023-02-17T10:24:54.012Z,14.88
2023-02-17T10:25:54.081Z,14.89
2023-02-17T10:26:53.992Z,14.86
2023-02-17T10:27:53.990Z,14.91
2023-02-17T10:28:53.996Z,14.94
2023-02-17T10:29:53.971Z,14.99
2023-02-17T10:30:54.140Z,15.04
2023-02-17T10:31:54.109Z,15.15
2023-02-17T10:32:53.960Z,15.04
2023-02-17T10:33:53.917Z,15.07
2023-02-17T10:34:54.018Z,15.19
2023-02-17T10:35:53.907Z,15.28
2023-02-17T10:36:53.931Z,15.42
2023-02-17T10:37:53.901Z,15.54
2023-02-17T10:38:53.862Z,15.67
2023-02-17T10:39:53.855Z,15.64
2023-02-17T10:41:00.881Z,15.58
2023-02-17T10:41:53.821Z,15.68
2023-02-17T10:42:53.811Z,15.62
2023-02-17T10:43:53.832Z,15.65
2023-02-17T10:44:53.820Z,15.57
2023-02-17T10:45:53.801Z,15.58
2023-02-17T10:46:53.840Z,15.54
2023-02-17T10:47:53.762Z,15.76
2023-02-17T10:48:53.770Z,15.88
2023-02-17T10:49:53.731Z,16.00
2023-02-17T10:50:53.721Z,16.00
2023-02-17T10:51:53.711Z,15.94
2023-02-17T10:52:53.701Z,16.15
2023-02-17T10:53:53.693Z,16.16
2023-02-17T10:54:53.751Z,15.90
2023-02-17T10:55:53.678Z,15.86
2023-02-17T10:56:53.663Z,15.76
2023-02-17T10:57:53.733Z,15.88
2023-02-17T10:58:53.663Z,15.84
2023-02-17T10:59:53.630Z,15.73
2023-02-17T11:00:53.686Z,15.79
2023-02-17T11:01:53.606Z,15.94
2023-02-17T11:02:53.592Z,16.10
2023-02-17T11:03:53.693Z,16.10
2023-02-17T11:04:53.564Z,16.33
2023-02-17T11:05:53.558Z,16.56
2023-02-17T11:06:53.574Z,16.61
2023-02-17T11:07:53.533Z,16.68
2023-02-17T11:08:53.524Z,16.66
2023-02-17T11:09:53.514Z,16.94
2023-02-17T11:10:53.504Z,17.12
2023-02-17T11:11:53.498Z,17.20
2023-02-17T11:12:53.505Z,17.34
2023-02-17T11:13:53.477Z,17.27
2023-02-17T11:14:53.457Z,17.33
2023-02-17T11:15:53.475Z,17.38
2023-02-17T11:16:53.487Z,17.42
2023-02-17T11:17:53.626Z,17.59
2023-02-17T11:18:53.406Z,17.83
2023-02-17T11:19:53.396Z,18.08
2023-02-17T11:20:53.408Z,18.13
2023-02-17T11:21:53.376Z,18.29
2023-02-17T11:22:53.407Z,18.10
2023-02-17T11:23:53.376Z,18.40
2023-02-17T11:24:53.418Z,18.25
2023-02-17T11:25:53.337Z,18.40
2023-02-17T11:26:53.327Z,18.75
2023-02-17T11:27:53.308Z,18.98
2023-02-17T11:28:53.387Z,19.16
2023-02-17T11:29:53.290Z,18.74
2023-02-17T11:30:53.314Z,18.96
2023-02-17T11:31:53.323Z,19.09
2023-02-17T11:32:53.256Z,18.84
2023-02-17T11:33:55.194Z,18.73
2023-02-17T11:34:53.258Z,18.68
2023-02-17T11:35:53.218Z,18.84
2023-02-17T11:36:53.232Z,19.14
2023-02-17T11:37:53.222Z,18.95
2023-02-17T11:38:53.198Z,18.95
2023-02-17T11:39:53.196Z,19.19
2023-02-17T11:40:53.191Z,19.27
2023-02-17T11:41:53.164Z,19.18
2023-02-17T11:42:53.150Z,19.11
2023-02-17T11:43:53.168Z,19.16
2023-02-17T11:44:53.135Z,19.18
2023-02-17T11:45:53.137Z,19.04
2023-02-17T11:46:53.123Z,19.08
2023-02-17T11:47:53.104Z,18.86
2023-02-17T11:48:53.084Z,18.74
2023-02-17T11:49:53.075Z,18.81
2023-02-17T11:50:53.063Z,18.95
2023-02-17T11:51:53.063Z,18.84
2023-02-17T11:52:53.068Z,18.60
2023-02-17T11:53:53.035Z,18.41
2023-02-17T11:54:53.021Z,18.68
2023-02-17T11:55:53.004Z,18.71
2023-02-17T11:56:53.002Z,18.66
2023-02-17T11:57:53.012Z,18.65
2023-02-17T11:58:52.972Z,18.83
2023-02-17T11:59:52.962Z,18.95
2023-02-17T12:00:52.955Z,18.80
2023-02-17T12:01:52.941Z,18.86
2023-02-17T12:02:52.974Z,19.11
2023-02-17T12:03:52.933Z,18.90
2023-02-17T12:04:52.937Z,18.90
2023-02-17T12:05:52.901Z,19.00
2023-02-17T12:06:52.888Z,19.14
2023-02-17T12:07:52.889Z,19.08
2023-02-17T12:08:52.865Z,19.16
2023-02-17T12:09:52.871Z,19.39
2023-02-17T12:10:52.850Z,19.44
2023-02-17T12:11:52.832Z,19.22
2023-02-17T12:12:52.831Z,19.30
2023-02-17T12:13:52.800Z,19.33
2023-02-17T12:14:52.803Z,19.36
2023-02-17T12:15:52.810Z,19.44
2023-02-17T12:16:52.807Z,19.47
2023-02-17T12:17:52.762Z,19.51
2023-02-17T12:18:52.767Z,19.55
2023-02-17T12:19:52.741Z,19.52
2023-02-17T12:20:52.731Z,19.69
2023-02-17T12:21:52.743Z,19.58
2023-02-17T12:22:52.711Z,19.58
2023-02-17T12:23:52.701Z,19.76
2023-02-17T12:24:52.681Z,19.59
2023-02-17T12:25:52.680Z,19.49
2023-02-17T12:26:52.663Z,19.48
2023-02-17T12:27:52.691Z,19.40
2023-02-17T12:28:52.641Z,19.37
2023-02-17T12:29:52.624Z,19.40
2023-02-17T12:30:52.789Z,19.36
2023-02-17T12:31:52.698Z,19.47
2023-02-17T12:32:52.602Z,19.62
2023-02-17T12:33:52.631Z,19.54
2023-02-17T12:34:52.577Z,19.41
2023-02-17T12:35:52.556Z,19.44
2023-02-17T12:36:52.542Z,19.51
2023-02-17T12:37:52.533Z,19.37
2023-02-17T12:38:52.531Z,19.15
2023-02-17T12:39:52.524Z,19.07
2023-02-17T12:40:52.507Z,19.15
2023-02-17T12:41:52.487Z,19.16
2023-02-17T12:42:52.475Z,19.09
2023-02-17T12:43:52.473Z,19.16
2023-02-17T12:44:52.466Z,19.00
2023-02-17T12:45:52.518Z,19.15
2023-02-17T12:46:52.436Z,19.24
2023-02-17T12:47:52.424Z,19.26
2023-02-17T12:48:52.406Z,18.81
2023-02-17T12:49:52.526Z,18.86
2023-02-17T12:50:52.381Z,18.98
2023-02-17T12:51:52.418Z,19.18
2023-02-17T12:52:52.355Z,19.30